Joliet, Montana
Current Conditions -  °F | °C
As of 4:53 PM on Sunday 21 Dec 2014 (Local Time) from KBIL Reporting Station
Broken Clouds Broken Clouds  
Wind Chill: 37°   Ceiling: 10000
Heat Index: 46°   Visibility: 10mi
Dew Point: 20°   Wind: 26mph
Humidity: 35%   Direction: 290°WNW
Pressure: 29.52"   Gusts: 36mph
Location:  45.49°N, 108.97°W
Report Text: KBIL 212353Z 29023G31KT 10SM FEW075 BKN100 BKN180 08/M07 A2952 RMK AO2 PK WND 30031/2258 SLP004 VIRGA ALQDS SHRASN DSNT E-SE T00781067 10122 20067 51031
Loading
Personal Weather Stations






























Interactive Weather Map New forecast layout! Learn more

10-Day Weather Forecast

Advertisements
Track Severe Weather on mobile